sensor_id;sensor_type;location;lat;lon;timestamp;pressure;altitude;pressure_sealevel;temperature;humidity
63535;BME280;55128;50.230;18.944;2023-06-10T00:02:22;98184.63;;;16.13;100.00
63535;BME280;55128;50.230;18.944;2023-06-10T00:07:23;98185.94;;;16.07;100.00
63535;BME280;55128;50.230;18.944;2023-06-10T00:12:23;98180.66;;;15.94;100.00
63535;BME280;55128;50.230;18.944;2023-06-10T00:17:23;98182.59;;;15.92;99.78
63535;BME280;55128;50.230;18.944;2023-06-10T00:22:25;98184.88;;;15.86;99.79
63535;BME280;55128;50.230;18.944;2023-06-10T00:27:29;98180.59;;;15.83;99.86
63535;BME280;55128;50.230;18.944;2023-06-10T00:32:35;98189.84;;;15.79;99.39
63535;BME280;55128;50.230;18.944;2023-06-10T00:37:36;98191.03;;;15.75;99.76
63535;BME280;55128;50.230;18.944;2023-06-10T00:42:36;98194.59;;;15.63;99.30
63535;BME280;55128;50.230;18.944;2023-06-10T00:47:37;98192.88;;;15.62;100.00
63535;BME280;55128;50.230;18.944;2023-06-10T00:52:37;98211.06;;;15.69;100.00
63535;BME280;55128;50.230;18.944;2023-06-10T00:57:38;98214.47;;;15.71;100.00
63535;BME280;55128;50.230;18.944;2023-06-10T01:02:38;98205.91;;;15.79;100.00
63535;BME280;55128;50.230;18.944;2023-06-10T01:08:03;98207.28;;;15.85;100.00
63535;BME280;55128;50.230;18.944;2023-06-10T01:13:10;98206.53;;;15.83;100.00
63535;BME280;55128;50.230;18.944;2023-06-10T01:18:11;98190.22;;;15.86;99.96
63535;BME280;55128;50.230;18.944;2023-06-10T01:23:17;98191.94;;;15.87;100.00
63535;BME280;55128;50.230;18.944;2023-06-10T01:28:31;98204.53;;;15.98;100.00
63535;BME280;55128;50.230;18.944;2023-06-10T01:33:37;98197.72;;;15.93;100.00
63535;BME280;55128;50.230;18.944;2023-06-10T01:38:42;98196.50;;;15.98;100.00
63535;BME280;55128;50.230;18.944;2023-06-10T01:43:44;98205.16;;;16.01;99.99
63535;BME280;55128;50.230;18.944;2023-06-10T01:48:45;98205.78;;;16.05;99.78
63535;BME280;55128;50.230;18.944;2023-06-10T01:53:46;98208.91;;;15.99;100.00
63535;BME280;55128;50.230;18.944;2023-06-10T01:58:46;98212.09;;;16.04;99.69
63535;BME280;55128;50.230;18.944;2023-06-10T02:03:46;98219.91;;;16.07;99.84
63535;BME280;55128;50.230;18.944;2023-06-10T02:08:47;98217.44;;;16.04;99.52
63535;BME280;55128;50.230;18.944;2023-06-10T02:13:47;98235.25;;;16.05;100.00
63535;BME280;55128;50.230;18.944;2023-06-10T02:18:47;98229.59;;;15.97;99.70
63535;BME280;55128;50.230;18.944;2023-06-10T02:23:48;98222.81;;;16.04;99.86
63535;BME280;55128;50.230;18.944;2023-06-10T02:28:49;98232.31;;;16.08;100.00
63535;BME280;55128;50.230;18.944;2023-06-10T02:33:49;98234.03;;;16.09;99.60
63535;BME280;55128;50.230;18.944;2023-06-10T02:38:50;98229.63;;;16.08;99.51
63535;BME280;55128;50.230;18.944;2023-06-10T02:43:50;98231.47;;;16.07;99.79
63535;BME280;55128;50.230;18.944;2023-06-10T02:48:51;98233.72;;;16.01;100.00
63535;BME280;55128;50.230;18.944;2023-06-10T02:53:52;98243.03;;;16.08;100.00
63535;BME280;55128;50.230;18.944;2023-06-10T02:58:52;98229.69;;;16.19;99.60
63535;BME280;55128;50.230;18.944;2023-06-10T03:03:53;98230.53;;;16.20;100.00
63535;BME280;55128;50.230;18.944;2023-06-10T03:08:53;98238.44;;;16.21;99.81
63535;BME280;55128;50.230;18.944;2023-06-10T03:13:53;98228.38;;;16.25;99.73
63535;BME280;55128;50.230;18.944;2023-06-10T03:18:54;98237.06;;;16.40;99.89
63535;BME280;55128;50.230;18.944;2023-06-10T03:23:54;98238.72;;;16.54;100.00
63535;BME280;55128;50.230;18.944;2023-06-10T03:28:55;98257.00;;;16.71;99.55
63535;BME280;55128;50.230;18.944;2023-06-10T03:33:55;98247.44;;;16.91;99.66
63535;BME280;55128;50.230;18.944;2023-06-10T03:38:55;98254.28;;;16.95;99.06
63535;BME280;55128;50.230;18.944;2023-06-10T03:43:56;98260.41;;;17.08;98.57
63535;BME280;55128;50.230;18.944;2023-06-10T03:48:57;98259.06;;;17.03;98.25
63535;BME280;55128;50.230;18.944;2023-06-10T03:54:00;98257.59;;;17.10;98.12
63535;BME280;55128;50.230;18.944;2023-06-10T03:59:00;98263.09;;;17.20;98.42
63535;BME280;55128;50.230;18.944;2023-06-10T04:04:01;98263.94;;;17.32;96.48
63535;BME280;55128;50.230;18.944;2023-06-10T04:09:02;98258.44;;;17.44;96.38
63535;BME280;55128;50.230;18.944;2023-06-10T04:14:03;98260.63;;;17.39;96.08
63535;BME280;55128;50.230;18.944;2023-06-10T04:19:03;98271.63;;;17.25;96.04
63535;BME280;55128;50.230;18.944;2023-06-10T04:24:04;98262.81;;;17.12;97.29
63535;BME280;55128;50.230;18.944;2023-06-10T04:29:04;98273.31;;;17.26;96.05
63535;BME280;55128;50.230;18.944;2023-06-10T04:34:05;98277.97;;;17.35;95.74
63535;BME280;55128;50.230;18.944;2023-06-10T04:39:05;98273.31;;;17.37;94.71
63535;BME280;55128;50.230;18.944;2023-06-10T04:44:05;98267.84;;;17.27;95.54
63535;BME280;55128;50.230;18.944;2023-06-10T04:49:06;98270.88;;;17.23;94.06
63535;BME280;55128;50.230;18.944;2023-06-10T04:54:06;98269.91;;;17.24;95.30
63535;BME280;55128;50.230;18.944;2023-06-10T04:59:06;98268.69;;;17.28;96.06
63535;BME280;55128;50.230;18.944;2023-06-10T05:04:07;98270.53;;;17.50;94.32
63535;BME280;55128;50.230;18.944;2023-06-10T05:09:07;98278.34;;;17.42;93.95
63535;BME280;55128;50.230;18.944;2023-06-10T05:14:08;98275.78;;;17.40;93.76
63535;BME280;55128;50.230;18.944;2023-06-10T05:19:08;98290.41;;;17.47;94.06
63535;BME280;55128;50.230;18.944;2023-06-10T05:24:08;98280.22;;;18.08;94.11
63535;BME280;55128;50.230;18.944;2023-06-10T05:29:09;98278.88;;;18.67;89.11
63535;BME280;55128;50.230;18.944;2023-06-10T05:34:09;98289.81;;;19.07;84.68
63535;BME280;55128;50.230;18.944;2023-06-10T05:39:10;98291.78;;;18.84;85.76
63535;BME280;55128;50.230;18.944;2023-06-10T05:44:10;98292.56;;;18.63;86.68
63535;BME280;55128;50.230;18.944;2023-06-10T05:49:10;98298.09;;;18.62;86.69
63535;BME280;55128;50.230;18.944;2023-06-10T05:54:11;98309.22;;;18.57;86.57
63535;BME280;55128;50.230;18.944;2023-06-10T05:59:11;98310.28;;;18.34;85.35
63535;BME280;55128;50.230;18.944;2023-06-10T06:04:11;98318.69;;;18.08;86.20
63535;BME280;55128;50.230;18.944;2023-06-10T06:09:12;98319.28;;;18.12;86.60
63535;BME280;55128;50.230;18.944;2023-06-10T06:14:13;98320.38;;;18.53;86.12
63535;BME280;55128;50.230;18.944;2023-06-10T06:19:13;98320.19;;;18.65;85.66
63535;BME280;55128;50.230;18.944;2023-06-10T06:24:15;98317.88;;;18.93;85.67
63535;BME280;55128;50.230;18.944;2023-06-10T06:29:16;98327.25;;;18.45;85.60
63535;BME280;55128;50.230;18.944;2023-06-10T06:34:16;98339.22;;;18.53;84.56
63535;BME280;55128;50.230;18.944;2023-06-10T06:39:16;98356.75;;;18.24;92.46
63535;BME280;55128;50.230;18.944;2023-06-10T06:44:17;98360.03;;;16.56;100.00
63535;BME280;55128;50.230;18.944;2023-06-10T06:49:17;98361.78;;;16.20;100.00
63535;BME280;55128;50.230;18.944;2023-06-10T06:54:18;98364.16;;;16.11;100.00
63535;BME280;55128;50.230;18.944;2023-06-10T06:59:18;98366.06;;;16.22;100.00
63535;BME280;55128;50.230;18.944;2023-06-10T07:04:19;98359.94;;;16.33;100.00
63535;BME280;55128;50.230;18.944;2023-06-10T07:09:21;98362.16;;;16.39;100.00
63535;BME280;55128;50.230;18.944;2023-06-10T07:14:22;98363.78;;;16.53;100.00
63535;BME280;55128;50.230;18.944;2023-06-10T07:19:22;98374.06;;;16.83;100.00
63535;BME280;55128;50.230;18.944;2023-06-10T07:24:22;98372.72;;;16.89;100.00
63535;BME280;55128;50.230;18.944;2023-06-10T07:29:23;98367.88;;;16.94;100.00
63535;BME280;55128;50.230;18.944;2023-06-10T07:34:23;98376.94;;;17.04;100.00
63535;BME280;55128;50.230;18.944;2023-06-10T07:39:24;98373.72;;;16.88;100.00
63535;BME280;55128;50.230;18.944;2023-06-10T07:44:24;98382.53;;;17.01;100.00
63535;BME280;55128;50.230;18.944;2023-06-10T07:49:24;98384.28;;;17.14;100.00
63535;BME280;55128;50.230;18.944;2023-06-10T07:54:25;98387.25;;;17.33;100.00
63535;BME280;55128;50.230;18.944;2023-06-10T07:59:25;98380.31;;;17.42;100.00
63535;BME280;55128;50.230;18.944;2023-06-10T08:04:26;98378.50;;;17.65;100.00
63535;BME280;55128;50.230;18.944;2023-06-10T08:09:27;98386.94;;;18.05;100.00
63535;BME280;55128;50.230;18.944;2023-06-10T08:14:27;98391.84;;;18.55;100.00
63535;BME280;55128;50.230;18.944;2023-06-10T08:19:27;98400.84;;;18.65;100.00
63535;BME280;55128;50.230;18.944;2023-06-10T08:24:28;98393.50;;;18.79;99.12
63535;BME280;55128;50.230;18.944;2023-06-10T08:29:28;98396.66;;;18.84;97.68
63535;BME280;55128;50.230;18.944;2023-06-10T08:34:29;98402.56;;;19.73;96.96
63535;BME280;55128;50.230;18.944;2023-06-10T08:39:29;98407.16;;;20.73;89.59
63535;BME280;55128;50.230;18.944;2023-06-10T08:44:35;98412.41;;;21.24;83.07
63535;BME280;55128;50.230;18.944;2023-06-10T08:49:42;98416.59;;;21.85;76.49
63535;BME280;55128;50.230;18.944;2023-06-10T08:54:57;98407.34;;;24.21;71.68
63535;BME280;55128;50.230;18.944;2023-06-10T08:59:57;98408.44;;;24.95;68.32
63535;BME280;55128;50.230;18.944;2023-06-10T09:04:58;98413.78;;;26.27;61.64
63535;BME280;55128;50.230;18.944;2023-06-10T09:10:00;98427.41;;;24.71;64.73
63535;BME280;55128;50.230;18.944;2023-06-10T09:15:03;98424.91;;;24.43;65.67
63535;BME280;55128;50.230;18.944;2023-06-10T09:20:04;98422.94;;;26.73;57.32
63535;BME280;55128;50.230;18.944;2023-06-10T09:25:07;98428.13;;;27.14;55.46
63535;BME280;55128;50.230;18.944;2023-06-10T09:30:27;98434.69;;;28.34;53.23
63535;BME280;55128;50.230;18.944;2023-06-10T09:35:30;98431.22;;;28.92;50.02
63535;BME280;55128;50.230;18.944;2023-06-10T09:40:30;98427.00;;;27.32;53.16
63535;BME280;55128;50.230;18.944;2023-06-10T09:45:31;98436.66;;;27.11;51.71
63535;BME280;55128;50.230;18.944;2023-06-10T09:50:41;98419.81;;;25.89;54.11
63535;BME280;55128;50.230;18.944;2023-06-10T09:55:43;98420.66;;;26.46;54.22
63535;BME280;55128;50.230;18.944;2023-06-10T10:00:52;98425.06;;;26.07;54.66
63535;BME280;55128;50.230;18.944;2023-06-10T10:05:58;98429.44;;;24.77;58.10
63535;BME280;55128;50.230;18.944;2023-06-10T10:10:59;98420.19;;;25.61;56.69
63535;BME280;55128;50.230;18.944;2023-06-10T10:16:08;98430.34;;;25.18;54.49
63535;BME280;55128;50.230;18.944;2023-06-10T10:21:14;98419.97;;;24.38;55.46
63535;BME280;55128;50.230;18.944;2023-06-10T10:26:17;98414.03;;;24.35;55.32
63535;BME280;55128;50.230;18.944;2023-06-10T10:31:19;98401.09;;;24.71;54.84
63535;BME280;55128;50.230;18.944;2023-06-10T10:36:20;98402.72;;;24.48;56.73
63535;BME280;55128;50.230;18.944;2023-06-10T10:41:22;98403.28;;;24.25;58.23
63535;BME280;55128;50.230;18.944;2023-06-10T10:46:25;98419.78;;;23.97;56.03
63535;BME280;55128;50.230;18.944;2023-06-10T10:51:59;98411.63;;;23.45;56.81
63535;BME280;55128;50.230;18.944;2023-06-10T10:57:15;98399.19;;;23.60;57.09
63535;BME280;55128;50.230;18.944;2023-06-10T11:02:17;98408.66;;;23.56;56.62
63535;BME280;55128;50.230;18.944;2023-06-10T11:07:21;98389.03;;;23.00;56.18
63535;BME280;55128;50.230;18.944;2023-06-10T11:12:23;98394.13;;;23.65;56.33
63535;BME280;55128;50.230;18.944;2023-06-10T11:17:24;98388.22;;;23.96;54.63
63535;BME280;55128;50.230;18.944;2023-06-10T11:22:24;98396.22;;;23.72;54.80
63535;BME280;55128;50.230;18.944;2023-06-10T11:27:25;98404.72;;;23.77;55.02
63535;BME280;55128;50.230;18.944;2023-06-10T11:32:30;98396.09;;;24.08;54.78
63535;BME280;55128;50.230;18.944;2023-06-10T11:37:33;98398.56;;;23.22;56.67
63535;BME280;55128;50.230;18.944;2023-06-10T11:42:38;98400.03;;;22.81;58.26
63535;BME280;55128;50.230;18.944;2023-06-10T11:47:39;98392.03;;;22.97;58.97
63535;BME280;55128;50.230;18.944;2023-06-10T11:52:40;98383.75;;;22.99;57.84
63535;BME280;55128;50.230;18.944;2023-06-10T11:57:41;98384.56;;;23.09;58.23
63535;BME280;55128;50.230;18.944;2023-06-10T12:02:41;98371.72;;;23.11;56.78
63535;BME280;55128;50.230;18.944;2023-06-10T12:07:42;98377.88;;;23.39;56.37
63535;BME280;55128;50.230;18.944;2023-06-10T12:12:42;98372.72;;;24.06;55.49
63535;BME280;55128;50.230;18.944;2023-06-10T12:17:43;98376.56;;;24.04;54.04
63535;BME280;55128;50.230;18.944;2023-06-10T12:22:44;98380.16;;;24.04;52.60
63535;BME280;55128;50.230;18.944;2023-06-10T12:27:52;98363.81;;;23.96;53.64
63535;BME280;55128;50.230;18.944;2023-06-10T12:32:56;98371.88;;;24.14;53.86
63535;BME280;55128;50.230;18.944;2023-06-10T12:38:01;98378.44;;;24.03;53.93
63535;BME280;55128;50.230;18.944;2023-06-10T12:43:03;98388.56;;;24.36;52.07
63535;BME280;55128;50.230;18.944;2023-06-10T12:48:10;98375.34;;;23.90;52.23
63535;BME280;55128;50.230;18.944;2023-06-10T12:53:11;98369.81;;;24.08;53.46
63535;BME280;55128;50.230;18.944;2023-06-10T12:58:12;98372.63;;;23.90;52.67
63535;BME280;55128;50.230;18.944;2023-06-10T13:03:12;98367.16;;;23.82;53.18
63535;BME280;55128;50.230;18.944;2023-06-10T13:08:12;98366.59;;;24.04;52.55
63535;BME280;55128;50.230;18.944;2023-06-10T13:13:13;98366.63;;;24.13;52.67
63535;BME280;55128;50.230;18.944;2023-06-10T13:18:14;98365.50;;;24.32;51.64
63535;BME280;55128;50.230;18.944;2023-06-10T13:23:14;98357.66;;;24.96;50.97
63535;BME280;55128;50.230;18.944;2023-06-10T13:28:15;98338.34;;;25.15;50.11
63535;BME280;55128;50.230;18.944;2023-06-10T13:33:16;98353.75;;;24.15;51.57
63535;BME280;55128;50.230;18.944;2023-06-10T13:38:16;98344.06;;;24.71;51.63
63535;BME280;55128;50.230;18.944;2023-06-10T13:43:16;98339.84;;;24.69;51.67
63535;BME280;55128;50.230;18.944;2023-06-10T13:48:17;98350.22;;;24.90;51.20
63535;BME280;55128;50.230;18.944;2023-06-10T13:53:18;98336.09;;;24.53;50.63
63535;BME280;55128;50.230;18.944;2023-06-10T13:58:18;98338.50;;;24.22;52.27
63535;BME280;55128;50.230;18.944;2023-06-10T14:03:19;98336.63;;;24.22;52.84
63535;BME280;55128;50.230;18.944;2023-06-10T14:08:19;98338.06;;;23.66;53.00
63535;BME280;55128;50.230;18.944;2023-06-10T14:13:20;98344.25;;;23.50;54.31
63535;BME280;55128;50.230;18.944;2023-06-10T14:18:21;98338.38;;;23.63;54.33
63535;BME280;55128;50.230;18.944;2023-06-10T14:23:21;98331.38;;;23.52;54.92
63535;BME280;55128;50.230;18.944;2023-06-10T14:28:22;98339.41;;;23.36;55.70
63535;BME280;55128;50.230;18.944;2023-06-10T14:33:24;98364.38;;;22.67;50.33
63535;BME280;55128;50.230;18.944;2023-06-10T14:38:25;98389.91;;;21.62;50.70
63535;BME280;55128;50.230;18.944;2023-06-10T14:43:26;98365.19;;;20.40;64.53
63535;BME280;55128;50.230;18.944;2023-06-10T14:48:26;98360.22;;;18.91;74.84
63535;BME280;55128;50.230;18.944;2023-06-10T14:53:26;98349.69;;;18.88;73.53
63535;BME280;55128;50.230;18.944;2023-06-10T14:58:27;98365.91;;;18.65;75.80
63535;BME280;55128;50.230;18.944;2023-06-10T15:03:27;98367.81;;;18.75;76.46
63535;BME280;55128;50.230;18.944;2023-06-10T15:08:27;98358.38;;;18.92;77.49
63535;BME280;55128;50.230;18.944;2023-06-10T15:13:28;98368.22;;;19.02;79.78
63535;BME280;55128;50.230;18.944;2023-06-10T15:18:32;98368.03;;;19.15;79.79
63535;BME280;55128;50.230;18.944;2023-06-10T15:23:32;98369.84;;;19.57;80.67
63535;BME280;55128;50.230;18.944;2023-06-10T15:28:33;98371.13;;;19.84;79.13
63535;BME280;55128;50.230;18.944;2023-06-10T15:33:33;98378.22;;;19.85;79.16
63535;BME280;55128;50.230;18.944;2023-06-10T15:38:33;98378.78;;;19.78;79.22
63535;BME280;55128;50.230;18.944;2023-06-10T15:43:34;98385.03;;;19.89;79.69
63535;BME280;55128;50.230;18.944;2023-06-10T15:48:35;98384.19;;;19.88;79.35
63535;BME280;55128;50.230;18.944;2023-06-10T15:53:38;98377.97;;;19.88;79.60
63535;BME280;55128;50.230;18.944;2023-06-10T15:58:39;98380.13;;;20.04;78.81
63535;BME280;55128;50.230;18.944;2023-06-10T16:03:40;98384.72;;;20.13;78.39
63535;BME280;55128;50.230;18.944;2023-06-10T16:08:43;98386.97;;;20.17;78.18
63535;BME280;55128;50.230;18.944;2023-06-10T16:13:44;98377.44;;;20.54;77.55
63535;BME280;55128;50.230;18.944;2023-06-10T16:18:44;98380.59;;;20.69;77.00
63535;BME280;55128;50.230;18.944;2023-06-10T16:23:45;98383.56;;;20.66;77.25
63535;BME280;55128;50.230;18.944;2023-06-10T16:28:45;98392.25;;;20.79;76.41
63535;BME280;55128;50.230;18.944;2023-06-10T16:33:47;98406.53;;;20.50;76.12
63535;BME280;55128;50.230;18.944;2023-06-10T16:38:47;98417.50;;;20.68;76.26
63535;BME280;55128;50.230;18.944;2023-06-10T16:43:47;98426.88;;;20.74;75.82
63535;BME280;55128;50.230;18.944;2023-06-10T16:48:48;98436.28;;;20.89;75.81
63535;BME280;55128;50.230;18.944;2023-06-10T16:53:48;98445.63;;;20.75;75.64
63535;BME280;55128;50.230;18.944;2023-06-10T16:58:48;98444.66;;;21.06;74.51
63535;BME280;55128;50.230;18.944;2023-06-10T17:03:49;98445.94;;;21.02;74.54
63535;BME280;55128;50.230;18.944;2023-06-10T17:08:49;98452.63;;;20.88;74.11
63535;BME280;55128;50.230;18.944;2023-06-10T17:13:50;98456.88;;;20.90;73.18
63535;BME280;55128;50.230;18.944;2023-06-10T17:18:50;98459.16;;;20.95;74.01
63535;BME280;55128;50.230;18.944;2023-06-10T17:23:50;98463.28;;;20.89;72.35
63535;BME280;55128;50.230;18.944;2023-06-10T17:28:51;98456.09;;;20.59;72.29
63535;BME280;55128;50.230;18.944;2023-06-10T17:33:51;98463.28;;;20.49;70.74
63535;BME280;55128;50.230;18.944;2023-06-10T17:38:52;98463.88;;;20.52;68.54
63535;BME280;55128;50.230;18.944;2023-06-10T17:43:52;98471.25;;;20.50;67.04
63535;BME280;55128;50.230;18.944;2023-06-10T17:48:52;98470.22;;;20.42;66.92
63535;BME280;55128;50.230;18.944;2023-06-10T17:53:53;98479.03;;;20.44;66.79
63535;BME280;55128;50.230;18.944;2023-06-10T17:58:54;98474.78;;;20.41;66.31
63535;BME280;55128;50.230;18.944;2023-06-10T18:03:54;98478.69;;;20.27;66.70
63535;BME280;55128;50.230;18.944;2023-06-10T18:08:55;98487.72;;;20.16;65.96
63535;BME280;55128;50.230;18.944;2023-06-10T18:13:55;98488.50;;;19.97;66.80
63535;BME280;55128;50.230;18.944;2023-06-10T18:18:55;98496.59;;;19.76;66.88
63535;BME280;55128;50.230;18.944;2023-06-10T18:23:57;98496.22;;;19.70;67.27
63535;BME280;55128;50.230;18.944;2023-06-10T18:28:57;98508.19;;;19.56;67.58
63535;BME280;55128;50.230;18.944;2023-06-10T18:33:57;98503.28;;;19.50;67.59
63535;BME280;55128;50.230;18.944;2023-06-10T18:38:58;98506.75;;;19.40;67.66
63535;BME280;55128;50.230;18.944;2023-06-10T18:43:58;98515.19;;;19.47;67.74
63535;BME280;55128;50.230;18.944;2023-06-10T18:49:00;98508.81;;;19.16;68.20
63535;BME280;55128;50.230;18.944;2023-06-10T18:54:01;98523.16;;;19.16;68.53
63535;BME280;55128;50.230;18.944;2023-06-10T18:59:03;98529.41;;;19.06;68.50
63535;BME280;55128;50.230;18.944;2023-06-10T19:04:03;98533.59;;;18.98;69.75
63535;BME280;55128;50.230;18.944;2023-06-10T19:09:04;98537.25;;;18.75;70.42
63535;BME280;55128;50.230;18.944;2023-06-10T19:14:04;98548.53;;;18.69;70.10
63535;BME280;55128;50.230;18.944;2023-06-10T19:19:06;98555.88;;;18.55;69.77
63535;BME280;55128;50.230;18.944;2023-06-10T19:24:07;98554.28;;;18.53;69.87
63535;BME280;55128;50.230;18.944;2023-06-10T19:29:09;98559.16;;;18.36;70.69
63535;BME280;55128;50.230;18.944;2023-06-10T19:34:11;98552.34;;;18.32;71.03
63535;BME280;55128;50.230;18.944;2023-06-10T19:39:11;98551.44;;;18.09;71.99
63535;BME280;55128;50.230;18.944;2023-06-10T19:44:12;98564.00;;;17.97;72.29
63535;BME280;55128;50.230;18.944;2023-06-10T19:49:12;98554.22;;;17.85;72.59
63535;BME280;55128;50.230;18.944;2023-06-10T19:54:13;98558.44;;;17.76;72.75
63535;BME280;55128;50.230;18.944;2023-06-10T19:59:13;98554.22;;;17.85;71.86
63535;BME280;55128;50.230;18.944;2023-06-10T20:04:14;98558.13;;;17.68;72.18
63535;BME280;55128;50.230;18.944;2023-06-10T20:09:14;98557.28;;;17.67;72.13
63535;BME280;55128;50.230;18.944;2023-06-10T20:14:15;98565.47;;;17.66;72.72
63535;BME280;55128;50.230;18.944;2023-06-10T20:19:15;98560.31;;;17.52;73.24
63535;BME280;55128;50.230;18.944;2023-06-10T20:24:16;98565.16;;;17.46;73.81
63535;BME280;55128;50.230;18.944;2023-06-10T20:29:16;98575.25;;;17.43;74.00
63535;BME280;55128;50.230;18.944;2023-06-10T20:34:17;98573.78;;;17.39;73.55
63535;BME280;55128;50.230;18.944;2023-06-10T20:39:17;98570.69;;;17.32;73.76
63535;BME280;55128;50.230;18.944;2023-06-10T20:44:18;98579.84;;;17.29;74.10
63535;BME280;55128;50.230;18.944;2023-06-10T20:49:18;98572.56;;;17.19;74.58
63535;BME280;55128;50.230;18.944;2023-06-10T20:54:18;98575.72;;;17.13;75.13
63535;BME280;55128;50.230;18.944;2023-06-10T20:59:19;98583.88;;;17.11;75.24
63535;BME280;55128;50.230;18.944;2023-06-10T21:04:20;98581.00;;;17.01;75.33
63535;BME280;55128;50.230;18.944;2023-06-10T21:09:20;98584.38;;;16.92;76.24
63535;BME280;55128;50.230;18.944;2023-06-10T21:14:20;98578.47;;;16.87;76.80
63535;BME280;55128;50.230;18.944;2023-06-10T21:19:21;98577.97;;;16.69;77.69
63535;BME280;55128;50.230;18.944;2023-06-10T21:24:21;98577.06;;;16.68;77.48
63535;BME280;55128;50.230;18.944;2023-06-10T21:29:22;98590.63;;;16.67;77.47
63535;BME280;55128;50.230;18.944;2023-06-10T21:34:23;98585.47;;;16.64;77.30
63535;BME280;55128;50.230;18.944;2023-06-10T21:39:23;98589.81;;;16.78;76.80
63535;BME280;55128;50.230;18.944;2023-06-10T21:44:24;98595.63;;;16.71;77.03
63535;BME280;55128;50.230;18.944;2023-06-10T21:49:25;98586.41;;;16.63;77.32
63535;BME280;55128;50.230;18.944;2023-06-10T21:54:25;98591.47;;;16.67;77.46
63535;BME280;55128;50.230;18.944;2023-06-10T21:59:25;98592.88;;;16.60;77.88
63535;BME280;55128;50.230;18.944;2023-06-10T22:04:26;98585.16;;;16.56;78.23
63535;BME280;55128;50.230;18.944;2023-06-10T22:09:26;98579.91;;;16.54;78.19
63535;BME280;55128;50.230;18.944;2023-06-10T22:14:26;98579.16;;;16.52;78.36
63535;BME280;55128;50.230;18.944;2023-06-10T22:19:27;98582.81;;;16.51;78.62
63535;BME280;55128;50.230;18.944;2023-06-10T22:24:27;98571.97;;;16.40;78.74
63535;BME280;55128;50.230;18.944;2023-06-10T22:29:28;98573.16;;;16.36;79.19
63535;BME280;55128;50.230;18.944;2023-06-10T22:34:28;98571.34;;;16.36;79.30
63535;BME280;55128;50.230;18.944;2023-06-10T22:39:29;98571.25;;;16.25;80.35
63535;BME280;55128;50.230;18.944;2023-06-10T22:44:29;98577.78;;;16.21;80.21
63535;BME280;55128;50.230;18.944;2023-06-10T22:49:29;98575.84;;;16.10;81.15
63535;BME280;55128;50.230;18.944;2023-06-10T22:54:30;98578.00;;;16.05;80.96
63535;BME280;55128;50.230;18.944;2023-06-10T22:59:30;98583.25;;;15.93;81.91
63535;BME280;55128;50.230;18.944;2023-06-10T23:04:30;98580.03;;;15.88;82.41
63535;BME280;55128;50.230;18.944;2023-06-10T23:09:31;98586.94;;;15.78;82.93
63535;BME280;55128;50.230;18.944;2023-06-10T23:14:31;98580.66;;;15.79;82.84
63535;BME280;55128;50.230;18.944;2023-06-10T23:19:31;98584.66;;;15.72;83.50
63535;BME280;55128;50.230;18.944;2023-06-10T23:24:34;98576.81;;;15.69;83.71
63535;BME280;55128;50.230;18.944;2023-06-10T23:29:34;98585.19;;;15.64;83.67
63535;BME280;55128;50.230;18.944;2023-06-10T23:34:35;98584.44;;;15.62;83.47
63535;BME280;55128;50.230;18.944;2023-06-10T23:39:35;98581.44;;;15.67;83.42
63535;BME280;55128;50.230;18.944;2023-06-10T23:44:36;98582.50;;;15.64;83.22
63535;BME280;55128;50.230;18.944;2023-06-10T23:49:36;98581.41;;;15.54;82.77
63535;BME280;55128;50.230;18.944;2023-06-10T23:54:36;98572.41;;;15.55;82.60
63535;BME280;55128;50.230;18.944;2023-06-10T23:59:37;98572.47;;;15.41;82.82
